Data for 10/25/2018

Time Sea-Level Adjusted Pressure Absolute Pressure Temperature Relative Humidity Dew Point   
(mb) (inHg) (mb) (inHg) (C) (F) (%) (C) (F)
00:05 1018 30.06 848 25.04 8.6 47.4 54 -0.2 31.6
00:10 1018 30.06 848 25.04 8.6 47.4 53 -0.3 31.4
00:15 1018 30.06 848 25.04 8.6 47.4 54 -0.2 31.6
00:20 1018 30.06 848 25.04 8.4 47.1 55 -0 31.9
00:25 1018 30.06 848 25.04 8.2 46.8 55 -0.2 31.7
00:30 1018 30.06 848 25.04 8.1 46.6 57 0.1 32.2
00:35 1019 30.09 848 25.04 8 46.4 57 -0 31.9
00:40 1019 30.09 848 25.04 8.1 46.5 57 0.1 32.1
00:45 1019 30.09 848 25.04 8.3 46.9 55 -0.2 31.7
00:50 1019 30.09 848 25.04 8.3 47 56 0.2 32.3
00:55 1019 30.09 848 25.04 8.3 46.9 55 -0.1 31.7
01:00 1019 30.09 848 25.04 8.2 46.8 56 -0.1 31.9
01:05 1019 30.09 848 25.04 8.3 46.9 56 -0 32
01:10 1019 30.09 848 25.04 8.3 47 56 0 32
01:15 1019 30.09 848 25.04 8.4 47 57 0.2 32.4
01:20 1019 30.09 848 25.04 8.1 46.6 58 0.3 32.6
01:25 1019 30.09 848 25.04 7.4 45.3 61 0.3 32.6
01:30 1019 30.09 848 25.04 7.1 44.8 62 0.2 32.4
01:35 1019 30.09 848 25.04 6.9 44.4 62 0.1 32.2
01:40 1019 30.09 848 25.04 6.8 44.3 62 0.1 32.1
01:45 1019 30.09 848 25.04 6.9 44.5 61 0.1 32.1
01:50 1019 30.09 848 25.04 7.1 44.7 61 0 32.1
01:55 1019 30.09 848 25.04 7.1 44.7 61 0.1 32.2
02:00 1019 30.09 848 25.04 7.2 44.9 61 0.1 32.2
02:05 1019 30.09 848 25.04 7.2 45 61 0.1 32.2
02:10 1019 30.09 848 25.04 7.3 45.2 60 0.2 32.4
02:15 1019 30.09 848 25.04 7.4 45.4 59 -0 32
02:20 1019 30.09 848 25.04 7.6 45.6 59 0.2 32.3
02:25 1019 30.09 848 25.04 7.4 45.2 59 0 32
02:30 1019 30.09 849 25.07 7.3 45.2 59 -0 32
02:35 1019 30.09 849 25.07 7.4 45.3 60 0.1 32.1
02:40 1019 30.09 849 25.07 7.4 45.3 60 0.1 32.2
02:45 1019 30.09 849 25.07 7.5 45.5 59 0 32
02:50 1019 30.09 849 25.07 7.5 45.5 59 -0 32
02:55 1019 30.09 849 25.07 7.4 45.3 59 -0 32
03:00 1019 30.09 849 25.07 7.3 45.1 59 -0.1 31.7
03:05 1020 30.12 849 25.07 7.4 45.2 59 -0.1 31.9
03:10 1020 30.12 849 25.07 7.3 45.2 60 0 32
03:15 1020 30.12 849 25.07 7.2 44.9 60 0 32
03:20 1020 30.12 849 25.07 7.2 45 60 -0 32
03:25 1020 30.12 849 25.07 7.3 45.2 60 0.2 32.3
03:30 1020 30.12 849 25.07 7.5 45.4 60 0.2 32.4
03:35 1020 30.12 849 25.07 7.6 45.6 60 0.3 32.6
03:40 1020 30.12 849 25.07 7.6 45.8 60 0.5 32.9
03:45 1020 30.12 849 25.07 7.7 45.8 61 0.6 33.1
03:50 1020 30.12 849 25.07 7.7 45.8 61 0.6 33.2
03:55 1020 30.12 849 25.07 7.7 45.8 61 0.7 33.2
04:00 1020 30.12 849 25.07 7.7 45.8 62 0.8 33.5
04:05 1020 30.12 849 25.07 7.6 45.7 63 1 33.8
04:10 1020 30.12 849 25.07 7.5 45.6 63 1.1 33.9
04:15 1020 30.12 849 25.07 7.5 45.5 64 1.2 34.1
04:20 1020 30.12 849 25.07 7.6 45.6 64 1.2 34.1
04:25 1020 30.12 849 25.07 7.6 45.7 64 1.3 34.3
04:30 1020 30.12 849 25.07 7.6 45.7 64 1.3 34.3
04:35 1020 30.12 849 25.07 7.6 45.6 65 1.4 34.5
04:40 1020 30.12 850 25.1 7.5 45.5 65 1.4 34.4
04:45 1020 30.12 850 25.1 7.6 45.6 65 1.4 34.5
04:50 1020 30.12 850 25.1 7.7 45.8 64 1.4 34.5
04:55 1020 30.12 850 25.1 7.8 46.1 64 1.4 34.5
05:00 1020 30.12 850 25.1 8 46.3 63 1.3 34.3
05:05 1020 30.12 850 25.1 8.1 46.6 62 1.3 34.3
05:10 1020 30.12 850 25.1 8.2 46.7 62 1.3 34.4
05:15 1020 30.12 850 25.1 8.2 46.7 62 1.4 34.5
05:20 1020 30.12 850 25.1 8.1 46.6 63 1.4 34.6
05:25 1020 30.12 850 25.1 8.1 46.6 62 1.4 34.5
05:30 1020 30.12 850 25.1 8.2 46.7 62 1.5 34.6
05:35 1020 30.12 850 25.1 8.2 46.8 62 1.4 34.5
05:40 1020 30.12 850 25.1 8.4 47 61 1.3 34.4
05:45 1021 30.15 850 25.1 8.4 47.1 61 1.4 34.5
05:50 1021 30.15 850 25.1 8.4 47.2 61 1.4 34.4
05:55 1021 30.15 850 25.1 8.4 47.1 61 1.3 34.3
06:00 1020 30.12 850 25.1 8.4 47 60 1.1 34
06:05 1020 30.12 850 25.1 8.4 47 60 1.1 33.9
06:10 1020 30.12 850 25.1 8.4 47.1 60 1.1 33.9
06:15 1020 30.12 850 25.1 8.4 47.1 60 1.1 34
06:20 1020 30.12 849 25.07 8.4 47.2 60 1.2 34.2
06:25 1020 30.12 849 25.07 8.4 47.1 60 1.2 34.1
06:30 1020 30.12 849 25.07 8.3 47 61 1.2 34.2
06:35 1020 30.12 849 25.07 8.2 46.8 61 1.3 34.3
06:40 1020 30.12 849 25.07 8.1 46.6 62 1.2 34.2
06:45 1020 30.12 849 25.07 8 46.3 62 1.2 34.1
06:50 1020 30.12 849 25.07 7.9 46.1 63 1.2 34.2
06:55 1020 30.12 849 25.07 7.8 46 63 1.3 34.3
07:00 1020 30.12 849 25.07 7.6 45.6 64 1.3 34.3
07:05 1020 30.12 850 25.1 7.5 45.4 65 1.3 34.3
07:10 1020 30.12 850 25.1 7.4 45.3 65 1.3 34.3
07:15 1021 30.15 850 25.1 7.4 45.3 65 1.2 34.2
07:20 1021 30.15 850 25.1 7.5 45.5 65 1.3 34.3
07:25 1021 30.15 850 25.1 7.6 45.6 64 1.3 34.3
07:30 1021 30.15 850 25.1 7.7 45.9 63 1.2 34.1
07:35 1021 30.15 850 25.1 8 46.5 63 1.4 34.6
07:40 1021 30.15 850 25.1 8.1 46.5 64 1.6 35
07:45 1021 30.15 850 25.1 7.5 45.5 66 1.5 34.7
07:50 1021 30.15 850 25.1 7.1 44.8 66 1.3 34.3
07:55 1021 30.15 850 25.1 7.2 45 66 1.2 34.2
08:00 1021 30.15 850 25.1 7.6 45.6 65 1.4 34.5
08:05 1021 30.15 850 25.1 7.8 46 65 1.6 34.8
08:10 1021 30.15 850 25.1 7.8 46.1 65 1.6 34.9
08:15 1021 30.15 850 25.1 7.9 46.1 64 1.6 34.9
08:20 1021 30.15 850 25.1 7.9 46.1 64 1.5 34.7
08:25 1021 30.15 850 25.1 7.8 46.1 63 1.2 34.2
08:30 1021 30.15 851 25.13 7.9 46.3 63 1.3 34.3
08:35 1021 30.15 851 25.13 7.9 46.3 61 0.9 33.6
08:40 1022 30.18 851 25.13 8.1 46.5 59 0.6 33
08:45 1022 30.18 851 25.13 8.2 46.8 59 0.7 33.2
08:50 1022 30.18 851 25.13 8.3 46.9 60 1 33.7
08:55 1022 30.18 851 25.13 8.3 46.9 60 0.9 33.7
09:00 1022 30.18 851 25.13 8.3 47 60 1.1 33.9
09:05 1022 30.18 851 25.13 8.3 47 60 1.1 33.9
09:10 1022 30.18 851 25.13 8.3 46.9 60 1 33.7
09:15 1022 30.18 851 25.13 8.3 47 59 0.8 33.4
09:20 1022 30.18 851 25.13 8.6 47.5 58 0.8 33.5
09:25 1022 30.18 851 25.13 8.8 47.9 56 0.4 32.8
09:30 1022 30.18 851 25.13 9.1 48.4 54 0.3 32.6
09:35 1022 30.18 851 25.13 9.4 48.9 53 0.4 32.7
09:40 1022 30.18 851 25.13 9.4 49 53 0.4 32.8
09:45 1022 30.18 851 25.13 9.6 49.2 53 0.6 33
09:50 1022 30.18 851 25.13 9.9 49.8 52 0.5 32.8
09:55 1022 30.18 851 25.13 9.9 49.9 52 0.7 33.2
10:00 1022 30.18 851 25.13 10 50 51 0.4 32.8
10:05 1022 30.18 851 25.13 10.2 50.3 51 0.5 32.8
10:10 1022 30.18 851 25.13 10.2 50.3 51 0.5 32.9
10:15 1022 30.18 851 25.13 10.5 50.9 49 0.2 32.4
10:20 1022 30.18 851 25.13 11.2 52.1 48 0.6 33.1
10:25 1022 30.18 851 25.13 11.5 52.6 46 0.4 32.8
10:30 1022 30.18 851 25.13 11.7 53.1 47 0.8 33.4
10:35 1022 30.18 851 25.13 11.5 52.7 48 1 33.8
10:40 1022 30.18 851 25.13 11.9 53.3 45 0.3 32.6
10:45 1022 30.18 851 25.13 11.8 53.3 47 1.1 33.9
10:50 1022 30.18 851 25.13 11.3 52.3 47 0.5 33
10:55 1022 30.18 851 25.13 11.4 52.5 47 0.6 33
11:00 1022 30.18 851 25.13 11.3 52.4 44 -0.3 31.5
11:05 1022 30.18 851 25.13 11.3 52.3 45 -0.2 31.6
11:10 1022 30.18 851 25.13 11.4 52.5 44 -0.5 31.2
11:15 1022 30.18 851 25.13 11.9 53.5 36 -2.6 27.3
11:20 1022 30.18 851 25.13 12.5 54.4 35 -2.4 27.8
11:25 1022 30.18 851 25.13 12.3 54.1 35 -2.7 27.1
11:30 1022 30.18 851 25.13 12.2 54 33 -3.6 25.5
11:35 1022 30.18 851 25.13 11.9 53.4 34 -3.5 25.7
11:40 1022 30.18 851 25.13 12.1 53.7 36 -2.7 27.2
11:45 1022 30.18 851 25.13 11.9 53.5 35 -2.9 26.8
11:50 1022 30.18 851 25.13 12.2 53.9 33 -3.5 25.7
11:55 1022 30.18 851 25.13 12.4 54.4 33 -3.5 25.7
12:00 1021 30.15 851 25.13 12.9 55.3 32 -3.2 26.3
12:05 1021 30.15 851 25.13 13.8 56.8 30 -3.4 25.8
12:10 1021 30.15 851 25.13 13.9 56.9 30 -3.3 26.1
12:15 1021 30.15 850 25.1 13.8 56.9 29 -3.8 25.2
12:20 1021 30.15 850 25.1 13.5 56.3 30 -3.7 25.3
12:25 1021 30.15 850 25.1 13.6 56.5 31 -3.2 26.2
12:30 1021 30.15 851 25.13 13.7 56.6 30 -3.4 25.9
12:35 1021 30.15 851 25.13 13.7 56.6 30 -3.3 26
12:40 1021 30.15 850 25.1 13.6 56.4 31 -3.3 26.1
12:45 1021 30.15 850 25.1 13.6 56.4 30 -3.5 25.7
12:50 1021 30.15 850 25.1 13.6 56.5 30 -3.4 25.8
12:55 1021 30.15 850 25.1 13.7 56.6 29 -3.9 25
13:00 1021 30.15 850 25.1 13.6 56.5 29 -4.1 24.5
13:05 1021 30.15 850 25.1 13.7 56.6 26 -5.6 21.8
13:10 1021 30.15 850 25.1 13.7 56.6 26 -5.6 21.9
13:15 1021 30.15 850 25.1 14 57.3 24 -5.9 21.3
13:20 1021 30.15 850 25.1 14.2 57.6 25 -5.6 21.9
13:25 1021 30.15 850 25.1 14.2 57.5 25 -5.8 21.6
13:30 1021 30.15 850 25.1 14.2 57.6 24 -5.9 21.4
13:35 1021 30.15 850 25.1 14.4 58 25 -5.4 22.2
13:40 1021 30.15 850 25.1 14.4 57.8 25 -5.4 22.2
13:45 1021 30.15 850 25.1 14.7 58.5 25 -5 22.9
13:50 1021 30.15 850 25.1 14.3 57.8 27 -4.5 24
13:55 1021 30.15 850 25.1 14.4 57.8 26 -4.9 23.2
14:00 1021 30.15 850 25.1 14.5 58.2 26 -4.9 23.2
14:05 1021 30.15 850 25.1 14.8 58.7 25 -4.8 23.4
14:10 1021 30.15 850 25.1 15.2 59.3 25 -4.4 24.1
14:15 1021 30.15 850 25.1 15.2 59.4 26 -4 24.9
14:20 1021 30.15 850 25.1 15.4 59.6 26 -4.1 24.6
14:25 1021 30.15 850 25.1 15.5 59.9 26 -3.9 25
14:30 1021 30.15 850 25.1 15.2 59.4 26 -3.9 25
14:35 1020 30.12 850 25.1 15.2 59.4 26 -4 24.7
14:40 1021 30.15 850 25.1 15.3 59.6 26 -3.7 25.3
14:45 1021 30.15 850 25.1 15.3 59.6 26 -4.2 24.5
14:50 1020 30.12 850 25.1 14.9 58.7 26 -4.2 24.4
14:55 1020 30.12 850 25.1 15 58.9 25 -4.9 23.2
15:00 1020 30.12 850 25.1 14.9 58.9 25 -4.9 23.1
15:05 1020 30.12 850 25.1 15 59 25 -5 23
15:10 1020 30.12 850 25.1 14.9 58.7 25 -4.9 23.1
15:15 1020 30.12 849 25.07 14.8 58.7 25 -4.9 23.2
15:20 1020 30.12 849 25.07 14.7 58.5 25 -5.2 22.7
15:25 1020 30.12 849 25.07 14.9 58.8 25 -4.7 23.6
15:30 1020 30.12 849 25.07 15 58.9 25 -4.7 23.6
15:35 1020 30.12 849 25.07 14.6 58.2 26 -4.8 23.3
15:40 1020 30.12 849 25.07 14.1 57.3 26 -5 23.1
15:45 1020 30.12 850 25.1 13.7 56.6 27 -4.9 23.1
15:50 1021 30.15 850 25.1 13.4 56.2 28 -4.8 23.4
15:55 1021 30.15 850 25.1 13.2 55.8 29 -4.4 24.1
16:00 1021 30.15 850 25.1 13.1 55.6 29 -4.6 23.8
16:05 1021 30.15 850 25.1 13 55.4 29 -4.6 23.8
16:10 1021 30.15 850 25.1 12.8 55.1 29 -4.7 23.5
16:15 1021 30.15 850 25.1 12.8 55 29 -4.6 23.7
16:20 1021 30.15 850 25.1 12.8 55 29 -5 23
16:25 1021 30.15 850 25.1 12.8 55 29 -4.6 23.7
16:30 1021 30.15 850 25.1 12.7 54.9 29 -4.9 23.2
16:35 1021 30.15 850 25.1 12.5 54.6 29 -4.8 23.3
16:40 1021 30.15 850 25.1 12.4 54.3 30 -4.9 23.3
16:45 1021 30.15 850 25.1 12.4 54.3 30 -4.7 23.6
16:50 1021 30.15 850 25.1 12.5 54.4 30 -4.7 23.6
16:55 1021 30.15 850 25.1 12.4 54.3 30 -4.5 24
17:00 1021 30.15 851 25.13 12.1 53.9 31 -4.3 24.2
17:05 1021 30.15 851 25.13 11.9 53.5 32 -4.3 24.2
17:10 1021 30.15 851 25.13 11.7 53.1 32 -4.3 24.2
17:15 1022 30.18 851 25.13 11.5 52.6 33 -4.3 24.2
17:20 1022 30.18 851 25.13 11.2 52.2 33 -4.3 24.3
17:25 1022 30.18 851 25.13 11.2 52.2 33 -4.5 23.9
17:30 1022 30.18 851 25.13 11.2 52.2 33 -4.6 23.8
17:35 1022 30.18 851 25.13 11.2 52.2 33 -4.5 23.8
17:40 1022 30.18 851 25.13 11.2 52.2 33 -4.5 23.9
17:45 1022 30.18 851 25.13 11.2 52.1 33 -4.4 24.1
17:50 1022 30.18 851 25.13 11.1 52 33 -4.4 24.2
17:55 1022 30.18 851 25.13 11 51.8 34 -4.3 24.2
18:00 1021 30.15 851 25.13 10.9 51.6 34 -4.3 24.3
18:05 1021 30.15 851 25.13 10.7 51.3 34 -4.4 24.1
18:10 1021 30.15 851 25.13 10.6 51.1 34 -4.5 23.9
18:15 1021 30.15 851 25.13 10.5 51 36 -3.9 25.1
18:20 1021 30.15 851 25.13 9.6 49.2 42 -2.6 27.3
18:25 1021 30.15 851 25.13 8.7 47.7 42 -3.4 25.9
18:30 1021 30.15 851 25.13 8.6 47.5 42 -3.5 25.7
18:35 1021 30.15 851 25.13 8.6 47.5 42 -3.6 25.6
18:40 1021 30.15 851 25.13 8.7 47.6 42 -3.5 25.7
18:45 1021 30.15 851 25.13 8.7 47.7 42 -3.6 25.5
18:50 1021 30.15 851 25.13 8.6 47.5 42 -3.4 25.9
18:55 1021 30.15 850 25.1 8.5 47.2 43 -3.5 25.8
19:00 1021 30.15 850 25.1 8.4 47.2 43 -3.5 25.8
19:05 1021 30.15 850 25.1 8.3 46.9 44 -3.3 26
19:10 1021 30.15 850 25.1 8.3 47 43 -3.5 25.7
19:15 1021 30.15 850 25.1 8.3 47 44 -3.3 26
19:20 1021 30.15 850 25.1 8.1 46.6 44 -3.3 26
19:25 1021 30.15 850 25.1 8.1 46.6 44 -3.4 25.8
19:30 1021 30.15 850 25.1 8 46.3 45 -3.1 26.3
19:35 1021 30.15 850 25.1 7.6 45.7 46 -3.2 26.2
19:40 1021 30.15 850 25.1 7.4 45.3 46 -3.6 25.6
19:45 1021 30.15 850 25.1 7.4 45.3 45 -3.6 25.5
19:50 1021 30.15 850 25.1 7.3 45.1 47 -3.4 25.9
19:55 1021 30.15 850 25.1 7.1 44.8 46 -3.6 25.5
20:00 1021 30.15 850 25.1 7 44.6 47 -3.6 25.6
20:05 1021 30.15 850 25.1 6.9 44.4 47 -3.6 25.6
20:10 1021 30.15 850 25.1 7 44.7 45 -4 24.8
20:15 1021 30.15 850 25.1 7.1 44.8 46 -3.6 25.5
20:20 1021 30.15 850 25.1 6.9 44.5 47 -3.5 25.6
20:25 1021 30.15 850 25.1 6.7 44.1 47 -3.9 25
20:30 1021 30.15 850 25.1 6.6 43.9 47 -3.9 24.9
20:35 1021 30.15 850 25.1 6.5 43.7 48 -3.8 25.1
20:40 1021 30.15 850 25.1 6.4 43.6 48 -3.8 25.2
20:45 1021 30.15 850 25.1 6.1 43 49 -3.7 25.3
20:50 1021 30.15 850 25.1 5.8 42.5 51 -3.5 25.7
20:55 1021 30.15 850 25.1 5.7 42.2 49 -4.1 24.6
21:00 1021 30.15 850 25.1 5.8 42.4 48 -4.4 24
21:05 1021 30.15 850 25.1 6 42.8 48 -4.3 24.3
21:10 1021 30.15 850 25.1 6 42.8 47 -4.5 23.8
21:15 1021 30.15 850 25.1 6.4 43.5 46 -4.4 24.2
21:20 1021 30.15 850 25.1 6.2 43.1 47 -4.2 24.4
21:25 1021 30.15 850 25.1 5.9 42.7 48 -4.2 24.4
21:30 1021 30.15 850 25.1 5.7 42.3 50 -4 24.8
21:35 1021 30.15 850 25.1 5.3 41.6 50 -4.3 24.2
21:40 1021 30.15 850 25.1 5.3 41.5 49 -4.5 23.9
21:45 1021 30.15 850 25.1 5.3 41.5 50 -4.4 24.1
21:50 1021 30.15 850 25.1 5.1 41.2 50 -4.4 24.1
21:55 1021 30.15 850 25.1 4.9 40.7 52 -4.3 24.3
22:00 1021 30.15 850 25.1 4.6 40.2 52 -4.5 23.9
22:05 1021 30.15 850 25.1 4.5 40.1 51 -4.8 23.3
22:10 1021 30.15 850 25.1 4.8 40.7 49 -5 22.9
22:15 1021 30.15 850 25.1 5.1 41.2 47 -5.1 22.7
22:20 1021 30.15 850 25.1 5.7 42.2 45 -5.3 22.4
22:25 1021 30.15 850 25.1 5.9 42.6 44 -5.4 22.3
22:30 1021 30.15 850 25.1 5.8 42.5 43 -5.7 21.8
22:35 1021 30.15 850 25.1 6.1 43 42 -5.8 21.6
22:40 1020 30.12 850 25.1 6.1 43 43 -5.7 21.8
22:45 1020 30.12 850 25.1 6.1 43.1 41 -6.3 20.7
22:50 1021 30.15 850 25.1 6.3 43.3 46 -4.5 24
22:55 1020 30.12 850 25.1 5.7 42.3 45 -5.4 22.3
23:00 1020 30.12 850 25.1 5.7 42.2 46 -5 23.1
23:05 1020 30.12 849 25.07 5.4 41.8 47 -5 23
23:10 1020 30.12 849 25.07 5.3 41.6 46 -5.4 22.2
23:15 1020 30.12 849 25.07 5.5 41.9 45 -5.4 22.3
23:20 1020 30.12 849 25.07 5.5 41.9 45 -5.4 22.3
23:25 1020 30.12 849 25.07 5.6 42.2 46 -5.2 22.7
23:30 1020 30.12 849 25.07 5.3 41.6 48 -4.9 23.2
23:35 1020 30.12 849 25.07 5 41 49 -4.7 23.5
23:40 1020 30.12 849 25.07 4.7 40.5 48 -5.2 22.6
23:45 1020 30.12 849 25.07 4.8 40.6 48 -5.3 22.4
23:50 1020 30.12 849 25.07 5.1 41.1 44 -6.1 21
23:55 1020 30.12 849 25.07 6 42.8 40 -6.6 20.2
24:00 1020 30.12 849 25.07 6.5 43.7 39 -6.6 20.2